Latest Weather Observations for Low Rocky Point

IDT60801

Issued at 3:31 pm EDT Tuesday 3 March 2015 (issued every 30 minutes, with the page automatically refreshed every 10 minutes)

About weather observations | Map of weather stations | Latest weather observations for TAS | Other Formats
Station Details ID: 097080 Name: LOW ROCKY POINT Lat: -42.98 Lon: 145.50 Height: 34.0 m
Data from the previous 72 hours. | See also: Recent months at Low Rocky Point
Date/Time
EDT
Temp
°C
App
Temp
°C
Dew
Point
Rel
Hum
%
Delta-T
°C
Wind Press
QNH
hPa
Press
MSL
hPa
Rain
since 9 am
mm
Dir
 
Spd
km/h
Gust
km/h
Spd
kts
Gust
kts
03/03:30pm 16.0 8.3 7.0 55 4.4 NW 37 48 20 26 1013.5 1013.5 0.0
03/03:00pm 16.1 8.3 6.8 54 4.6 NW 37 48 20 26 1013.7 1013.7 0.0
03/02:30pm 16.5 9.4 6.6 52 4.9 NW 33 43 18 23 1014.0 1014.0 0.0
03/02:00pm 16.5 9.4 6.6 52 4.9 NW 33 44 18 24 1014.0 1014.0 0.0
03/01:30pm 16.6 10.1 6.4 51 5.0 NW 30 39 16 21 1014.3 1014.3 0.0
03/01:00pm 15.2 9.7 6.0 54 4.4 NW 24 35 13 19 1014.6 1014.6 0.0
03/12:30pm 15.8 10.8 6.5 54 4.5 NW 22 28 12 15 1015.1 1015.1 0.0
03/12:00pm 15.1 9.9 5.6 53 4.5 NW 22 28 12 15 1015.6 1015.5 0.0
03/11:30am 16.1 12.2 7.1 55 4.5 WNW 17 24 9 13 1015.6 1015.5 0.0
03/11:00am 14.9 10.2 6.2 56 4.2 WNW 20 28 11 15 1015.8 1015.7 0.0
03/10:30am 14.2 9.4 5.8 57 4.0 WNW 20 26 11 14 1015.8 1015.7 0.0
03/10:00am 14.2 9.7 6.8 61 3.6 W 20 28 11 15 1015.6 1015.5 0.0
03/09:30am 14.0 9.9 7.8 66 3.1 W 19 28 10 15 1015.2 1015.2 0.0
03/09:00am 13.1 9.2 7.1 67 2.9 W 17 26 9 14 1015.1 1015.1 2.2
03/08:30am 12.6 8.1 7.1 69 2.7 WSW 20 26 11 14 1015.1 1015.1 2.2
03/08:00am 12.3 7.9 7.4 72 2.4 WSW 20 28 11 15 1014.8 1014.8 2.2
03/07:30am 12.3 6.6 6.8 69 2.6 WSW 26 32 14 17 1014.5 1014.5 2.2
03/07:00am 12.3 6.7 7.2 71 2.5 WSW 26 35 14 19 1014.2 1014.2 2.2
03/06:30am 12.5 6.5 7.0 69 2.6 W 28 37 15 20 1013.8 1013.8 2.2
03/06:00am 12.6 6.2 7.1 69 2.7 WSW 30 39 16 21 1013.6 1013.6 2.2
03/05:30am 12.8 7.1 8.3 74 2.2 WSW 28 35 15 19 1013.4 1013.4 2.2
03/05:00am 12.9 7.7 9.0 77 2.0 WSW 26 35 14 19 1013.0 1013.0 2.2
03/04:30am 12.9 8.1 8.8 76 2.1 WSW 24 32 13 17 1013.0 1013.0 2.2
03/04:00am 13.3 6.9 9.5 78 1.9 W 33 43 18 23 1012.8 1012.8 2.2
03/03:30am 13.2 7.4 10.7 85 1.3 WSW 32 43 17 23 1012.7 1012.7 2.2
03/03:00am 13.2 8.0 11.6 90 0.9 W 30 39 16 21 1012.6 1012.6 2.0
03/02:30am 12.9 8.1 11.6 92 0.7 W 28 35 15 19 1012.8 1012.8 2.0
03/02:00am 12.3 6.3 10.9 91 0.7 W 33 43 18 23 1012.7 1012.7 2.0
03/01:30am 12.8 6.9 11.2 90 0.8 WNW 33 39 18 21 1012.7 1012.7 2.0
03/01:00am 12.7 5.1 10.6 87 1.1 WNW 41 50 22 27 1012.8 1012.8 1.8
03/12:30am 12.4 4.4 9.1 80 1.7 WNW 41 50 22 27 1012.8 1012.8 0.6
03/12:17am 13.4 3.3 8.9 74 2.3 NW 52 63 28 34 1012.8 1012.8 0.0
03/12:12am 15.3 5.4 11.1 76 2.2 NW 54 72 29 39 1012.3 1012.3 0.0
03/12:00am 15.3 5.0 10.9 75 2.3 NW 56 69 30 37 1012.0 1012.0 0.0
 
Date/Time
EDT
Temp
°C
App
Temp
°C
Dew
Point
Rel
Hum
%
Delta-T
°C
Wind Press
QNH
hPa
Press
MSL
hPa
Rain
since 9 am
mm
Dir
 
Spd
km/h
Gust
km/h
Spd
kts
Gust
kts
02/11:30pm 15.3 5.3 10.9 75 2.3 NW 54 65 29 35 1012.2 1012.2 0.0
02/11:00pm 15.2 5.2 10.6 74 2.4 NW 54 65 29 35 1012.5 1012.5 0.0
02/10:30pm 14.9 5.5 10.3 74 2.4 NW 50 61 27 33 1012.7 1012.7 0.0
02/10:00pm 15.0 4.9 10.4 74 2.4 NW 54 65 29 35 1013.0 1013.0 0.0
02/09:30pm 15.0 4.8 10.2 73 2.5 NW 54 63 29 34 1013.0 1013.0 0.0
02/09:00pm 14.9 4.7 9.9 72 2.6 NW 54 69 29 37 1013.1 1013.1 0.0
02/08:30pm 14.9 6.2 10.1 73 2.5 NNW 46 57 25 31 1012.8 1012.8 0.0
02/08:00pm 14.7 4.7 9.5 71 2.7 NW 52 65 28 35 1012.7 1012.7 0.0
02/07:30pm 14.7 5.1 9.5 71 2.7 NW 50 61 27 33 1012.5 1012.5 0.0
02/07:00pm 14.7 4.7 9.3 70 2.8 NW 52 65 28 35 1012.5 1012.5 0.0
02/06:30pm 14.7 4.7 9.3 70 2.8 NW 52 61 28 33 1012.2 1012.2 0.0
02/06:00pm 15.1 6.3 9.5 69 2.9 NW 46 59 25 32 1012.5 1012.5 0.0
02/05:30pm 15.1 6.5 9.0 67 3.1 NW 44 54 24 29 1012.0 1012.0 0.0
02/05:00pm 14.8 6.3 8.7 67 3.1 NW 43 54 23 29 1012.3 1012.3 0.0
02/04:30pm 15.1 7.4 8.8 66 3.2 NW 39 46 21 25 1012.5 1012.5 0.0
02/04:00pm 15.1 7.4 8.8 66 3.2 NW 39 52 21 28 1012.9 1012.9 0.0
02/03:30pm 16.1 9.4 9.8 66 3.3 NW 35 46 19 25 1013.6 1013.6 0.0
02/03:00pm 15.3 8.1 9.0 66 3.2 NW 37 46 20 25 1013.8 1013.8 0.0
02/02:30pm 16.0 9.1 9.0 63 3.6 NW 35 44 19 24 1014.4 1014.4 0.0
02/02:00pm 15.9 9.6 8.9 63 3.6 NW 32 39 17 21 1014.8 1014.8 0.0
02/01:30pm 16.0 10.1 9.0 63 3.6 NNW 30 37 16 20 1015.1 1015.1 0.0
02/01:00pm 15.4 9.7 8.2 62 3.6 NNW 28 35 15 19 1015.6 1015.5 0.0
02/12:30pm 14.7 9.6 7.7 63 3.5 NNW 24 32 13 17 1016.1 1016.0 0.0
02/12:00pm 15.1 10.4 7.6 61 3.7 NNW 22 28 12 15 1016.7 1016.7 0.0
02/11:30am 14.3 9.1 7.4 63 3.4 NW 24 30 13 16 1017.3 1017.2 0.0
02/11:00am 14.2 10.4 7.5 64 3.3 NNW 17 26 9 14 1017.4 1017.4 0.0
02/10:30am 14.0 10.3 7.8 66 3.1 NNW 17 24 9 13 1017.7 1017.6 0.0
02/10:00am 13.7 10.8 8.3 70 2.7 NNW 13 20 7 11 1017.5 1017.5 0.0
02/09:30am 13.1 8.9 7.5 69 2.7 N 19 26 10 14 1017.4 1017.3 0.0
02/09:00am 12.4 8.0 7.5 72 2.4 NNE 20 28 11 15 1017.6 1017.6 1.6
02/08:30am 10.4 5.8 6.5 77 1.8 NNE 20 26 11 14 1017.7 1017.6 1.6
02/08:00am 9.6 4.9 6.0 78 1.7 NNE 20 28 11 15 1017.7 1017.7 1.6
02/07:30am 9.3 4.7 5.7 78 1.6 NNE 19 24 10 13 1017.6 1017.5 1.6
02/07:00am 9.1 4.3 5.5 78 1.6 NNE 20 26 11 14 1017.3 1017.3 1.6
02/06:30am 9.0 4.2 5.4 78 1.6 NNE 20 24 11 13 1017.2 1017.1 1.6
02/06:00am 9.0 4.4 5.4 78 1.6 NNE 19 22 10 12 1017.3 1017.3 1.6
02/05:30am 9.2 4.4 5.4 77 1.7 NNE 20 24 11 13 1017.6 1017.5 1.6
02/05:00am 8.9 4.0 5.3 78 1.6 N 20 24 11 13 1017.8 1017.8 1.6
02/04:30am 8.5 3.6 4.9 78 1.6 NNE 20 22 11 12 1017.9 1017.8 1.6
02/04:00am 8.1 3.0 4.3 77 1.7 NNE 20 24 11 13 1017.8 1017.8 1.6
02/03:30am 8.4 3.4 4.4 76 1.8 NNE 20 22 11 12 1017.8 1017.7 1.6
02/03:00am 8.8 4.0 4.6 75 1.9 NNE 19 22 10 12 1017.8 1017.8 1.6
02/02:30am 9.0 4.9 4.4 73 2.0 N 15 19 8 10 1018.0 1017.9 1.6
02/02:00am 9.6 5.6 5.0 73 2.1 N 15 17 8 9 1018.2 1018.2 1.6
02/01:30am 9.6 5.6 5.0 73 2.1 N 15 20 8 11 1018.3 1018.2 1.6
02/01:00am 9.4 4.9 4.4 71 2.2 NNE 17 19 9 10 1018.3 1018.3 1.6
02/12:30am 10.9 6.7 3.9 62 3.1 W 15 19 8 10 1018.1 1018.0 1.6
02/12:00am 10.6 6.8 3.9 63 3.0 NW 13 20 7 11 1018.1 1018.1 1.6
 
Date/Time
EDT
Temp
°C
App
Temp
°C
Dew
Point
Rel
Hum
%
Delta-T
°C
Wind Press
QNH
hPa
Press
MSL
hPa
Rain
since 9 am
mm
Dir
 
Spd
km/h
Gust
km/h
Spd
kts
Gust
kts
01/11:30pm 11.2 8.0 4.9 65 2.9 WNW 11 17 6 9 1018.1 1018.0 1.6
01/11:00pm 11.4 9.1 4.6 63 3.1 WSW 6 9 3 5 1018.3 1018.3 1.6
01/10:30pm 11.2 8.8 4.4 63 3.1 WSW 6 11 3 6 1018.4 1018.3 1.6
01/10:00pm 10.8 7.9 4.5 65 2.8 SW 9 15 5 8 1018.3 1018.3 1.6
01/09:30pm 10.9 7.5 4.1 63 3.0 SW 11 17 6 9 1018.2 1018.1 1.6
01/09:00pm 11.2 7.6 5.1 66 2.8 SW 13 20 7 11 1018.0 1018.0 1.6
01/08:30pm 10.8 6.7 4.3 64 2.9 SSW 15 19 8 10 1017.5 1017.4 1.6
01/08:00pm 11.3 6.4 4.3 62 3.1 SW 19 24 10 13 1017.5 1017.5 1.6
01/07:30pm 12.1 6.9 5.3 63 3.1 SW 22 32 12 17 1017.1 1017.0 1.6
01/07:00pm 12.4 7.6 5.6 63 3.2 WSW 20 28 11 15 1016.8 1016.8 1.6
01/06:30pm 12.6 8.0 6.4 66 3.0 WSW 20 28 11 15 1016.5 1016.4 1.6
01/06:00pm 12.9 8.5 6.5 65 3.1 SW 19 26 10 14 1015.9 1015.8 1.6
01/05:30pm 14.3 10.1 7.6 64 3.3 SW 19 28 10 15 1015.8 1015.7 1.6
01/05:00pm 14.4 10.0 7.5 63 3.4 SW 20 28 11 15 1015.4 1015.4 1.6
01/04:30pm 14.9 11.1 7.5 61 3.7 WSW 17 22 9 12 1015.3 1015.3 1.6
01/04:00pm 15.7 11.6 7.7 59 4.0 WSW 19 28 10 15 1014.8 1014.8 1.6
01/03:30pm 15.3 10.4 8.3 63 3.5 WSW 24 32 13 17 1014.6 1014.6 1.6
01/03:00pm 15.1 10.5 9.7 70 2.8 WSW 24 32 13 17 1014.3 1014.3 1.6
01/02:30pm 15.2 10.3 9.8 70 2.8 SW 26 35 14 19 1013.9 1013.9 1.6
01/02:00pm 16.1 11.1 10.8 71 2.8 SW 28 37 15 20 1013.3 1013.3 1.6
01/01:30pm 15.3 9.4 10.5 73 2.5 SW 32 44 17 24 1012.9 1012.9 1.6
01/01:00pm 14.3 8.5 10.9 80 1.8 SW 32 43 17 23 1012.5 1012.5 1.6
01/12:30pm 14.2 8.4 11.4 83 1.5 SW 33 48 18 26 1012.2 1012.2 1.6
01/12:00pm 13.9 8.4 11.8 87 1.1 SW 32 44 17 24 1011.7 1011.7 1.6
01/11:30am 12.7 6.8 11.1 90 0.8 SW 33 46 18 25 1011.1 1011.1 1.6
01/11:00am 13.4 10.2 11.8 90 0.9 SW 20 32 11 17 1010.5 1010.5 1.4
01/10:30am 12.2 8.7 10.1 87 1.1 SSW 19 37 10 20 1010.2 1010.2 0.8
01/10:00am 12.6 7.3 10.0 84 1.3 SSW 28 41 15 22 1009.5 1009.5 0.0
01/09:30am 13.2 9.6 10.6 84 1.4 SW 20 28 11 15 1008.8 1008.8 0.0
01/09:00am 13.3 9.0 10.8 85 1.3 SW 24 32 13 17 1008.2 1008.2 14.8
01/08:30am 12.9 8.9 10.6 86 1.2 SW 22 32 12 17 1007.7 1007.7 14.8
01/08:00am 12.4 7.3 10.6 89 0.9 SW 28 37 15 20 1007.3 1007.3 14.8
01/07:30am 12.2 8.3 10.8 91 0.7 SW 22 33 12 18 1006.7 1006.7 14.8
01/07:00am 12.1 7.4 10.7 91 0.7 SW 26 35 14 19 1006.1 1006.1 14.8
01/06:30am 11.8 7.1 10.5 92 0.7 SW 26 37 14 20 1005.6 1005.6 14.8
01/06:01am 12.3 6.9 10.9 91 0.7 SW 30 48 16 26 1004.9 1004.9 14.8
01/06:00am 12.2 7.2 10.8 91 0.7 SW 28 43 15 23 1004.9 1004.9 14.8
01/05:30am 12.0 6.5 10.4 90 0.8 WSW 30 43 16 23 1004.6 1004.6 14.6
01/05:00am 12.7 6.8 10.4 86 1.2 WSW 32 41 17 22 1004.0 1004.0 14.6
01/04:30am 13.5 6.2 10.3 81 1.7 W 39 48 21 26 1003.7 1003.7 14.0
01/04:00am 13.4 5.5 10.8 84 1.4 W 43 52 23 28 1003.5 1003.5 14.0
01/03:30am 13.5 6.5 11.2 86 1.2 W 39 54 21 29 1003.3 1003.3 14.0
01/03:00am 13.7 5.9 11.7 88 1.1 W 44 57 24 31 1003.0 1003.0 14.0
01/02:41am 13.2 5.8 11.3 88 1.0 W 41 59 22 32 1003.0 1003.0 14.0
01/02:30am 13.8 5.1 11.3 85 1.3 W 48 61 26 33 1003.0 1003.0 14.0
01/02:00am 14.5 6.6 11.6 83 1.6 W 44 54 24 29 1002.6 1002.6 14.0
01/01:33am 14.5 5.9 11.6 83 1.6 WNW 48 67 26 36 1002.2 1002.2 14.0
01/01:30am 14.6 6.0 11.7 83 1.6 WNW 48 56 26 30 1002.2 1002.2 14.0
01/01:00am 14.8 6.2 11.8 82 1.6 WNW 48 59 26 32 1002.0 1002.0 14.0
01/12:30am 14.5 6.4 12.2 86 1.2 WNW 46 61 25 33 1002.1 1002.1 14.0
01/12:00am 14.8 7.8 12.5 86 1.3 WNW 41 52 22 28 1001.7 1001.7 14.0
 
Date/Time
EDT
Temp
°C
App
Temp
°C
Dew
Point
Rel
Hum
%
Delta-T
°C
Wind Press
QNH
hPa
Press
MSL
hPa
Rain
since 9 am
mm
Dir
 
Spd
km/h
Gust
km/h
Spd
kts
Gust
kts
28/11:30pm 14.8 6.6 12.8 88 1.1 WNW 48 59 26 32 1001.5 1001.4 14.0
28/11:00pm 14.9 7.2 13.4 91 0.8 WNW 46 57 25 31 1001.2 1001.2 14.0
28/10:30pm 14.4 6.7 13.3 93 0.6 WNW 46 57 25 31 1001.1 1001.0 14.0
28/10:00pm 15.0 8.1 14.0 94 0.6 WNW 43 54 23 29 1000.7 1000.7 14.0
28/09:30pm 14.8 7.0 14.0 95 0.5 WNW 48 59 26 32 1000.1 1000.0 14.0
28/09:00pm 14.9 5.6 14.3 96 0.3 WNW 56 65 30 35 999.3 999.3 14.0
28/08:30pm 14.8 5.6 14.6 99 0.1 WNW 56 65 30 35 998.7 998.6 14.0
28/08:04pm 15.9 9.6 15.7 99 0.1 NW 43 61 23 33 998.1 998.0 13.8
28/08:00pm 16.1 10.3 15.9 99 0.1 NW 41 54 22 29 998.1 998.1 13.8
28/07:30pm 16.2 9.8 16.0 99 0.1 WNW 44 54 24 29 997.5 997.4 13.8
28/07:00pm 16.7 11.1 16.5 99 0.1 NW 41 54 22 29 997.2 997.2 13.8
28/06:30pm 16.8 10.3 16.6 99 0.1 NW 46 54 25 29 997.0 996.9 13.8
28/06:00pm 16.9 10.4 16.7 99 0.1 NNW 46 54 25 29 996.8 996.8 13.8
28/05:30pm 16.8 10.9 16.6 99 0.1 NNW 43 57 23 31 996.7 996.6 13.8
28/05:00pm 16.8 10.3 16.6 99 0.1 NNW 46 59 25 32 997.1 997.1 13.8
28/04:32pm 16.8 10.9 16.6 99 0.1 NNW 43 61 23 33 996.8 996.7 13.6
28/04:30pm 16.7 11.1 16.5 99 0.1 NNW 41 56 22 30 996.8 996.7 13.6
28/04:07pm 16.5 11.2 16.3 99 0.1 NNW 39 61 21 33 997.2 997.1 13.6
28/04:00pm 16.3 11.7 16.1 99 0.1 NNW 35 46 19 25 997.3 997.3 13.2

Other Formats:

Comma delimited format used in spreadsheet applications
http://www.bom.gov.au/fwo/IDT60801/IDT60801.95961.axf

JavaScript Object Notation format (JSON) in row-major order
http://www.bom.gov.au/fwo/IDT60801/IDT60801.95961.json